Time;durP1;ratioP1;P1;durP2;ratioP2;P2;SDS_P1;SDS_P2;PMS_P1;PMS_P2;Temp;Humidity;BMP_temperature;BMP_pressure;BME280_temperature;BME280_humidity;BME280_pressure;Samples;Min_cycle;Max_cycle;Signal;HPM_P1;HPM_P2
2021/09/15 00:01:28;;;;;;;14.70;13.60;;;22.20;98.00;;;;;;5019878;28;20172;-92
2021/09/15 00:03:54;;;;;;;15.00;13.70;;;22.40;98.40;;;;;;5019253;28;20183;-93
2021/09/15 00:06:19;;;;;;;14.67;13.57;;;22.50;97.90;;;;;;5017219;28;20229;-92
2021/09/15 00:08:45;;;;;;;14.63;13.53;;;22.60;98.10;;;;;;5035086;28;20447;-93
2021/09/15 00:11:12;;;;;;;15.10;14.00;;;21.00;97.50;;;;;;5017440;28;20547;-92
2021/09/15 00:13:39;;;;;;;14.20;13.13;;;21.40;97.30;;;;;;5017076;28;20223;-93
2021/09/15 00:16:05;;;;;;;15.30;14.00;;;22.40;97.90;;;;;;5036897;28;20402;-93
2021/09/15 00:18:31;;;;;;;14.13;12.80;;;22.40;98.10;;;;;;5017401;28;20458;-94
2021/09/15 00:20:56;;;;;;;13.87;12.87;;;21.50;97.40;;;;;;5017188;28;20415;-93
2021/09/15 00:23:22;;;;;;;15.20;13.70;;;21.60;97.50;;;;;;5017706;28;20167;-93
2021/09/15 00:25:48;;;;;;;15.13;13.67;;;22.70;98.70;;;;;;5017886;28;20164;-93
2021/09/15 00:28:13;;;;;;;13.90;12.90;;;22.40;98.90;;;;;;5035182;28;20534;-92
2021/09/15 00:30:39;;;;;;;14.37;13.37;;;21.10;97.90;;;;;;5019806;28;20206;-92
2021/09/15 00:33:05;;;;;;;14.43;13.33;;;22.00;98.20;;;;;;5042714;28;20175;-93
2021/09/15 00:35:30;;;;;;;13.63;12.40;;;21.70;97.70;;;;;;5029968;28;20564;-93
2021/09/15 00:37:56;;;;;;;14.60;13.60;;;22.50;98.30;;;;;;5031915;28;20212;-93
2021/09/15 00:40:21;;;;;;;16.10;14.53;;;20.40;97.00;;;;;;5047987;28;20300;-93
2021/09/15 00:42:47;;;;;;;14.10;13.10;;;21.10;98.10;;;;;;5035645;28;20176;-93
2021/09/15 00:45:12;;;;;;;14.40;13.40;;;21.10;97.40;;;;;;5050739;28;20175;-93
2021/09/15 00:47:38;;;;;;;14.10;13.00;;;21.10;97.40;;;;;;5024106;28;20180;-92
2021/09/15 00:50:04;;;;;;;14.23;13.00;;;21.70;98.30;;;;;;5017635;28;20167;-92
2021/09/15 00:52:30;;;;;;;16.17;13.20;;;21.10;97.70;;;;;;5034946;28;20191;-92
2021/09/15 00:54:55;;;;;;;14.77;13.63;;;21.10;97.50;;;;;;5017257;28;20415;-92
2021/09/15 00:57:21;;;;;;;14.23;13.13;;;21.00;98.00;;;;;;5016590;28;20246;-92
2021/09/15 00:59:46;;;;;;;18.77;14.13;;;20.90;98.30;;;;;;5017033;28;20223;-92
2021/09/15 01:02:12;;;;;;;15.13;13.90;;;21.30;98.60;;;;;;5034464;28;20650;-93
2021/09/15 01:04:38;;;;;;;14.40;13.30;;;20.90;98.60;;;;;;5016483;28;20194;-93
2021/09/15 01:07:03;;;;;;;13.37;12.57;;;21.60;99.50;;;;;;5034778;28;20168;-92
2021/09/15 01:09:30;;;;;;;14.93;13.40;;;19.70;98.30;;;;;;5038528;28;20636;-93
2021/09/15 01:11:57;;;;;;;13.80;12.80;;;20.70;99.50;;;;;;5020766;28;20198;-92
2021/09/15 01:14:23;;;;;;;14.43;13.47;;;21.40;99.90;;;;;;5020559;28;20423;-92
2021/09/15 01:16:51;;;;;;;15.87;14.40;;;21.70;99.90;;;;;;5038079;28;20513;-92
2021/09/15 01:19:18;;;;;;;15.97;14.50;;;20.60;99.90;;;;;;5019800;28;20474;-91
2021/09/15 01:21:43;;;;;;;14.50;13.50;;;22.20;99.90;;;;;;5019983;28;20415;-92
2021/09/15 01:24:09;;;;;;;13.60;12.67;;;20.70;99.90;;;;;;5020106;28;20501;-91
2021/09/15 01:26:36;;;;;;;14.13;13.33;;;20.80;99.70;;;;;;5020162;28;20933;-92
2021/09/15 01:29:02;;;;;;;15.03;13.90;;;20.70;99.80;;;;;;5019686;28;20513;-91
2021/09/15 01:31:27;;;;;;;13.93;13.13;;;21.80;99.90;;;;;;5019419;28;20513;-92
2021/09/15 01:33:53;;;;;;;16.60;15.17;;;21.10;99.90;;;;;;5019507;28;20180;-92
2021/09/15 01:36:18;;;;;;;14.63;13.53;;;22.00;99.90;;;;;;5036942;28;20278;-92
2021/09/15 01:38:44;;;;;;;14.57;13.57;;;21.40;99.90;;;;;;5019608;28;20220;-92
2021/09/15 01:41:10;;;;;;;15.00;13.90;;;21.50;99.90;;;;;;5019365;28;20688;-92
2021/09/15 01:43:35;;;;;;;16.93;14.30;;;20.10;99.90;;;;;;5019119;28;20282;-92
2021/09/15 01:46:01;;;;;;;14.47;13.27;;;20.60;99.90;;;;;;5019149;28;20179;-92
2021/09/15 01:48:26;;;;;;;14.80;13.80;;;20.60;99.90;;;;;;5019849;28;20176;-92
2021/09/15 01:50:52;;;;;;;15.30;14.20;;;20.60;99.90;;;;;;5019558;28;20233;-92
2021/09/15 01:53:18;;;;;;;15.03;14.03;;;20.80;99.90;;;;;;5019417;28;20172;-93
2021/09/15 01:55:43;;;;;;;14.07;13.07;;;21.50;99.90;;;;;;5019203;28;20336;-93
2021/09/15 01:58:10;;;;;;;14.00;12.80;;;21.00;99.90;;;;;;5026232;28;20459;-92
2021/09/15 02:00:36;;;;;;;14.77;13.50;;;21.60;99.90;;;;;;5060244;28;20187;-93
2021/09/15 02:03:02;;;;;;;15.10;13.90;;;20.60;99.90;;;;;;5041269;28;20458;-92
2021/09/15 02:05:28;;;;;;;14.53;13.60;;;20.60;99.90;;;;;;5020179;28;20473;-93
2021/09/15 02:07:53;;;;;;;15.10;13.93;;;20.80;99.90;;;;;;5019628;28;20423;-92
2021/09/15 02:10:19;;;;;;;15.37;14.23;;;21.90;99.90;;;;;;5019420;28;20603;-93
2021/09/15 02:12:45;;;;;;;15.17;13.90;;;21.40;99.90;;;;;;5018550;28;20172;-92
2021/09/15 02:15:12;;;;;;;15.30;14.17;;;22.00;99.90;;;;;;5019202;28;20273;-92
2021/09/15 02:17:38;;;;;;;15.80;14.60;;;21.00;99.90;;;;;;5018909;28;20168;-93
2021/09/15 02:20:07;;;;;;;14.90;13.90;;;20.40;99.90;;;;;;5018307;28;20605;-93
2021/09/15 02:22:32;;;;;;;15.93;14.53;;;20.40;99.90;;;;;;5018851;28;20775;-93
2021/09/15 02:24:58;;;;;;;15.57;14.47;;;20.50;99.90;;;;;;5018489;28;20426;-93
2021/09/15 02:27:24;;;;;;;15.10;14.20;;;20.20;99.90;;;;;;5036451;28;20411;-92
2021/09/15 02:29:49;;;;;;;15.37;14.27;;;20.50;99.90;;;;;;5020176;28;20172;-93
2021/09/15 02:32:15;;;;;;;15.37;14.10;;;20.50;99.90;;;;;;5019698;28;20631;-92
2021/09/15 02:34:40;;;;;;;15.63;14.30;;;20.50;99.90;;;;;;5036440;28;20176;-92
2021/09/15 02:37:06;;;;;;;15.60;14.50;;;21.10;99.90;;;;;;5018764;28;20234;-92
2021/09/15 02:39:31;;;;;;;16.70;15.33;;;20.40;99.90;;;;;;5018719;28;20216;-93
2021/09/15 02:41:57;;;;;;;15.20;13.90;;;22.10;99.90;;;;;;5018053;28;20650;-92
2021/09/15 02:44:23;;;;;;;16.73;15.30;;;20.70;99.90;;;;;;5035562;28;20172;-92
2021/09/15 02:46:48;;;;;;;15.77;14.37;;;19.70;99.90;;;;;;5035901;28;20243;-92
2021/09/15 02:49:14;;;;;;;16.53;15.33;;;20.90;99.90;;;;;;5035633;28;20223;-92
2021/09/15 02:51:39;;;;;;;15.73;14.53;;;20.40;99.90;;;;;;5018914;28;20164;-92
2021/09/15 02:54:05;;;;;;;16.03;14.73;;;20.40;99.90;;;;;;5035784;28;20202;-91
2021/09/15 02:56:31;;;;;;;15.40;14.30;;;20.40;99.90;;;;;;5035728;28;20635;-92
2021/09/15 02:58:56;;;;;;;16.33;15.13;;;20.30;99.90;;;;;;5017863;28;20253;-92
2021/09/15 03:01:22;;;;;;;16.80;15.50;;;20.00;99.90;;;;;;5034958;28;20587;-92
2021/09/15 03:03:47;;;;;;;15.93;14.73;;;20.90;99.90;;;;;;5035889;28;20626;-92
2021/09/15 03:06:13;;;;;;;16.50;15.30;;;20.40;99.90;;;;;;5036437;28;20242;-92
2021/09/15 03:08:39;;;;;;;15.33;14.33;;;20.40;99.90;;;;;;5018104;28;20263;-92
2021/09/15 03:11:04;;;;;;;17.03;15.60;;;21.80;99.90;;;;;;5018439;28;20168;-92
2021/09/15 03:13:30;;;;;;;16.23;15.03;;;21.50;99.90;;;;;;5018400;28;20172;-92
2021/09/15 03:15:55;;;;;;;16.60;15.37;;;21.90;99.90;;;;;;5036562;28;20246;-92
2021/09/15 03:18:21;;;;;;;16.10;14.67;;;20.60;99.90;;;;;;5018501;28;20204;-92
2021/09/15 03:20:46;;;;;;;16.50;15.40;;;21.90;99.90;;;;;;5035849;28;20169;-91
2021/09/15 03:23:12;;;;;;;17.13;15.80;;;20.80;99.90;;;;;;5017760;28;20563;-93
2021/09/15 03:25:38;;;;;;;15.43;14.23;;;20.30;99.90;;;;;;5036447;28;20164;-92
2021/09/15 03:28:03;;;;;;;16.43;15.23;;;20.20;99.90;;;;;;5036595;28;20164;-93
2021/09/15 03:30:29;;;;;;;16.87;15.77;;;20.20;99.90;;;;;;5018208;28;20202;-91
2021/09/15 03:32:55;;;;;;;16.60;15.43;;;20.20;99.90;;;;;;5019288;28;20183;-93
2021/09/15 03:35:21;;;;;;;16.10;15.00;;;21.10;99.90;;;;;;5018003;28;20211;-92
2021/09/15 03:37:47;;;;;;;16.10;14.90;;;20.20;99.90;;;;;;5019161;28;20188;-93
2021/09/15 03:40:13;;;;;;;17.20;15.93;;;20.20;99.90;;;;;;5019439;28;20488;-92
2021/09/15 03:42:38;;;;;;;18.10;16.70;;;20.20;99.90;;;;;;5036790;28;20172;-91
2021/09/15 03:45:05;;;;;;;18.60;16.97;;;20.10;99.90;;;;;;5021051;28;20430;-92
2021/09/15 03:47:31;;;;;;;18.17;16.87;;;20.10;99.90;;;;;;5019683;28;20221;-92
2021/09/15 03:49:57;;;;;;;18.57;17.07;;;21.10;99.90;;;;;;5019047;28;20793;-92
2021/09/15 03:52:23;;;;;;;17.47;16.17;;;20.90;99.90;;;;;;5018486;28;20506;-93
2021/09/15 03:54:48;;;;;;;20.23;18.30;;;20.00;99.90;;;;;;5018663;28;20176;-93
2021/09/15 03:57:14;;;;;;;19.03;17.23;;;20.00;99.90;;;;;;5017262;28;20202;-93
2021/09/15 03:59:39;;;;;;;17.97;16.37;;;20.40;99.90;;;;;;5019372;28;20688;-92
2021/09/15 04:02:05;;;;;;;18.53;16.90;;;20.50;99.90;;;;;;5017953;28;20191;-93
2021/09/15 04:04:31;;;;;;;17.90;16.50;;;20.00;99.90;;;;;;5040823;28;20175;-92
2021/09/15 04:06:57;;;;;;;17.93;16.73;;;19.80;99.90;;;;;;5019789;28;20419;-91
2021/09/15 04:09:22;;;;;;;17.83;16.50;;;21.20;99.90;;;;;;5017897;28;20176;-92
2021/09/15 04:11:48;;;;;;;19.73;17.73;;;21.20;99.90;;;;;;5017671;28;20175;-92
2021/09/15 04:14:13;;;;;;;17.10;15.80;;;20.30;99.90;;;;;;5017979;28;20186;-92
2021/09/15 04:16:39;;;;;;;18.13;16.63;;;20.00;99.90;;;;;;5018211;28;20178;-92
2021/09/15 04:19:05;;;;;;;16.73;15.53;;;20.20;99.90;;;;;;5017726;28;20298;-92
2021/09/15 04:21:30;;;;;;;17.87;16.63;;;19.60;99.90;;;;;;5017013;28;20171;-91
2021/09/15 04:24:12;;;;;;;17.33;16.13;;;19.70;99.90;;;;;;5019191;28;20206;-91
2021/09/15 04:32:06;;;;;;;18.73;17.33;;;20.10;99.90;;;;;;5037676;28;20473;-92
2021/09/15 04:34:32;;;;;;;17.63;16.33;;;20.30;99.90;;;;;;5036825;28;20403;-92
2021/09/15 04:36:57;;;;;;;18.87;17.50;;;21.10;99.90;;;;;;5016979;28;20235;-92
2021/09/15 04:39:23;;;;;;;20.00;18.30;;;20.90;99.90;;;;;;5017040;28;20212;-92
2021/09/15 04:41:48;;;;;;;20.40;18.80;;;21.70;99.90;;;;;;5016286;28;20183;-88
2021/09/15 04:44:14;;;;;;;21.10;19.00;;;19.90;99.90;;;;;;5016303;28;20172;-93
2021/09/15 04:46:40;;;;;;;20.50;18.80;;;19.70;99.90;;;;;;5016802;28;20169;-93
2021/09/15 04:49:05;;;;;;;20.43;18.70;;;19.90;99.90;;;;;;5017437;28;20631;-92
2021/09/15 04:51:31;;;;;;;20.50;18.63;;;21.70;99.90;;;;;;5016314;28;20230;-92
2021/09/15 04:53:56;;;;;;;19.53;17.93;;;19.70;99.90;;;;;;5017674;28;20244;-92
2021/09/15 04:56:22;;;;;;;18.90;17.40;;;20.90;99.90;;;;;;5015352;28;20176;-91
2021/09/15 04:58:48;;;;;;;17.70;16.40;;;20.90;99.90;;;;;;5015695;28;20215;-91
2021/09/15 05:01:13;;;;;;;17.40;16.30;;;21.20;99.90;;;;;;5017392;28;20173;-92
2021/09/15 05:03:46;;;;;;;19.67;18.07;;;20.70;99.90;;;;;;5017168;28;20541;-91
2021/09/15 05:06:12;;;;;;;19.20;17.80;;;20.40;99.90;;;;;;5016666;28;20215;-91
2021/09/15 05:08:38;;;;;;;19.60;18.00;;;21.30;99.90;;;;;;5018796;28;20411;-90
2021/09/15 05:11:03;;;;;;;19.00;17.40;;;20.00;99.90;;;;;;5017920;28;20646;-91
2021/09/15 05:13:29;;;;;;;18.87;17.40;;;20.00;99.90;;;;;;5016901;28;20243;-91
2021/09/15 05:15:55;;;;;;;18.10;16.80;;;20.10;99.90;;;;;;5018123;28;20165;-91
2021/09/15 05:18:20;;;;;;;18.63;17.27;;;20.10;99.90;;;;;;5021546;28;20699;-92
2021/09/15 05:20:46;;;;;;;18.10;16.87;;;20.10;99.90;;;;;;5017797;28;20231;-91
2021/09/15 05:23:11;;;;;;;19.03;17.33;;;21.60;99.90;;;;;;5017686;28;20693;-91
2021/09/15 05:25:37;;;;;;;18.43;16.83;;;20.30;99.90;;;;;;5017383;28;20255;-92
2021/09/15 05:28:03;;;;;;;20.00;18.60;;;21.70;99.90;;;;;;5020133;28;20184;-89
2021/09/15 05:30:29;;;;;;;18.93;17.40;;;20.20;99.90;;;;;;5015246;28;20465;-90
2021/09/15 05:32:55;;;;;;;21.57;19.57;;;20.00;99.90;;;;;;5019910;28;20422;-93
2021/09/15 05:35:20;;;;;;;18.00;16.70;;;20.30;99.90;;;;;;5027153;28;20169;-90
2021/09/15 05:37:46;;;;;;;19.50;17.63;;;20.90;99.90;;;;;;5046971;28;20219;-89
2021/09/15 05:40:15;;;;;;;18.20;17.00;;;20.70;99.90;;;;;;5026959;28;20259;-91
2021/09/15 05:42:40;;;;;;;19.33;17.90;;;20.20;99.90;;;;;;5039174;28;20164;-90
2021/09/15 05:45:07;;;;;;;16.83;15.73;;;21.20;99.90;;;;;;5038586;28;20437;-90
2021/09/15 05:47:35;;;;;;;15.27;14.17;;;20.30;99.90;;;;;;5040060;28;20180;-89
2021/09/15 05:50:01;;;;;;;18.07;16.53;;;20.40;99.90;;;;;;5005026;28;20454;-93
2021/09/15 05:52:28;;;;;;;18.60;17.00;;;20.50;99.90;;;;;;5042312;28;20725;-90
2021/09/15 05:54:53;;;;;;;17.17;15.70;;;21.00;99.90;;;;;;5041543;28;20425;-88
2021/09/15 05:57:20;;;;;;;17.10;15.77;;;21.50;99.90;;;;;;5044530;28;20399;-92
2021/09/15 05:59:48;;;;;;;14.63;13.63;;;20.30;99.90;;;;;;4333347;28;10000605;-92
2021/09/15 06:02:14;;;;;;;13.57;12.53;;;22.20;99.90;;;;;;5027002;28;20172;-91
2021/09/15 06:04:39;;;;;;;13.57;12.67;;;20.40;99.90;;;;;;5040306;28;20415;-92
2021/09/15 06:07:05;;;;;;;13.50;12.57;;;21.90;99.90;;;;;;5040303;28;20178;-91
2021/09/15 06:09:31;;;;;;;12.93;12.10;;;20.60;99.90;;;;;;5040579;28;20172;-91
2021/09/15 06:11:56;;;;;;;12.00;11.10;;;20.80;99.90;;;;;;5041131;28;20188;-90
2021/09/15 06:14:23;;;;;;;11.70;10.90;;;21.50;99.90;;;;;;5026378;28;20198;-91
2021/09/15 06:16:52;;;;;;;15.40;14.13;;;20.80;99.90;;;;;;5023314;28;20180;-93
2021/09/15 06:19:17;;;;;;;13.17;12.10;;;20.80;99.90;;;;;;5023023;28;20478;-91
2021/09/15 06:21:44;;;;;;;14.33;13.33;;;21.40;99.90;;;;;;5023536;28;20423;-89
2021/09/15 06:24:10;;;;;;;13.70;12.80;;;20.30;99.90;;;;;;5026256;28;20236;-92
2021/09/15 06:26:36;;;;;;;14.97;13.67;;;20.90;99.90;;;;;;5019891;28;20489;-86
2021/09/15 06:29:02;;;;;;;17.73;16.30;;;22.70;99.90;;;;;;5032005;28;20506;-86
2021/09/15 06:31:28;;;;;;;15.30;14.17;;;21.20;99.90;;;;;;5032568;28;20514;-86
2021/09/15 06:33:53;;;;;;;13.20;11.90;;;22.10;99.90;;;;;;5014743;28;20631;-85
2021/09/15 06:36:19;;;;;;;13.97;12.87;;;22.50;99.90;;;;;;5022744;28;20311;-91
2021/09/15 06:38:46;;;;;;;13.23;12.43;;;21.30;99.90;;;;;;5023390;28;20203;-91
2021/09/15 06:41:12;;;;;;;15.77;14.43;;;20.90;99.80;;;;;;5050123;28;20164;-91
2021/09/15 06:43:44;;;;;;;14.93;13.77;;;22.70;99.90;;;;;;5031991;28;20444;-92
2021/09/15 06:46:12;;;;;;;15.00;13.80;;;21.30;99.90;;;;;;5049171;28;20407;-89
2021/09/15 06:48:37;;;;;;;14.80;13.60;;;21.90;99.90;;;;;;4990529;28;20418;-89
2021/09/15 06:51:13;;;;;;;14.03;12.90;;;21.20;99.90;;;;;;4975026;28;20413;-93
2021/09/15 06:53:42;;;;;;;15.60;14.23;;;21.30;99.90;;;;;;4975762;28;20233;-92
2021/09/15 06:56:07;;;;;;;13.03;11.93;;;21.50;99.60;;;;;;4976688;28;20498;-90
2021/09/15 06:58:41;;;;;;;16.20;14.70;;;22.70;99.90;;;;;;4975117;28;20480;-96
2021/09/15 07:01:09;;;;;;;13.00;12.20;;;21.20;99.90;;;;;;4973601;28;20178;-92
2021/09/15 07:03:35;;;;;;;11.83;10.97;;;23.10;99.90;;;;;;4986793;28;20418;-91
2021/09/15 07:06:00;;;;;;;13.17;12.27;;;19.90;99.50;;;;;;4987755;28;20855;-92
2021/09/15 07:08:30;;;;;;;10.83;10.03;;;21.10;99.90;;;;;;4989287;28;20190;-90
2021/09/15 07:10:55;;;;;;;12.37;11.47;;;21.50;99.90;;;;;;4988376;28;20177;-93
2021/09/15 07:13:29;;;;;;;13.43;12.37;;;22.90;99.90;;;;;;4987380;28;20429;-95
2021/09/15 07:16:09;;;;;;;;;;;;;;;;;;;;;
2021/09/15 07:18:39;;;;;;;12.80;11.80;;;20.30;99.90;;;;;;4619979;28;10000279;-94
2021/09/15 07:21:15;;;;;;;16.10;14.77;;;19.70;99.90;;;;;;4948924;29;20642;-90
2021/09/15 07:23:41;;;;;;;14.43;13.23;;;20.80;99.90;;;;;;4965392;29;20429;-92
2021/09/15 07:26:19;;;;;;;;;;;;;;;;;;;;;
2021/09/15 07:28:47;;;;;;;16.40;14.93;;;20.90;99.90;;;;;;4985409;28;20253;-94
2021/09/15 07:31:24;;;;;;;16.73;15.27;;;21.00;99.90;;;;;;4986221;28;21008;-95
2021/09/15 07:34:16;;;;;;;14.50;13.30;;;21.20;99.90;;;;;;4971259;28;20421;-92
2021/09/15 07:37:00;;;;;;;14.20;13.00;;;21.50;99.90;;;;;;4932226;29;20545;-93
2021/09/15 07:39:56;;;;;;;18.57;14.70;;;21.40;99.90;;;;;;5001005;28;20542;-93
2021/09/15 07:42:22;;;;;;;16.57;15.17;;;21.80;99.90;;;;;;5030500;28;20439;-92
2021/09/15 07:44:48;;;;;;;15.60;13.87;;;22.00;99.90;;;;;;5024735;28;20412;-91
2021/09/15 07:47:18;;;;;;;14.80;13.77;;;22.00;99.90;;;;;;5009115;28;20258;-91
2021/09/15 07:49:49;;;;;;;15.50;14.13;;;22.00;99.40;;;;;;5029995;28;20751;-93
2021/09/15 07:52:17;;;;;;;13.67;12.60;;;22.10;99.90;;;;;;5012095;28;20427;-95
2021/09/15 07:54:48;;;;;;;14.20;13.13;;;22.00;99.30;;;;;;5028603;28;20430;-93
2021/09/15 07:57:20;;;;;;;17.13;15.33;;;21.70;98.60;;;;;;5023875;28;20419;-90
2021/09/15 07:59:51;;;;;;;15.43;14.13;;;23.20;99.90;;;;;;5023622;28;20464;-89
2021/09/15 08:02:31;;;;;;;16.70;15.50;;;21.60;99.90;;;;;;5026739;28;20458;-93
2021/09/15 08:05:22;;;;;;;14.93;13.73;;;21.60;99.90;;;;;;5027517;28;20419;-94
2021/09/15 08:07:51;;;;;;;16.37;14.80;;;21.60;99.90;;;;;;5012186;28;20416;-91
2021/09/15 08:10:21;;;;;;;15.43;13.97;;;21.50;99.90;;;;;;5027104;28;20404;-93
2021/09/15 08:12:53;;;;;;;15.93;14.47;;;22.20;99.90;;;;;;5027577;28;20411;-92
2021/09/15 08:15:20;;;;;;;14.63;13.37;;;22.80;99.90;;;;;;5010130;28;20475;-94
2021/09/15 08:17:56;;;;;;;;;;;;;;;;;;;;;
2021/09/15 08:20:24;;;;;;;15.43;14.17;;;21.90;99.90;;;;;;5029232;28;20443;-92
2021/09/15 08:22:52;;;;;;;13.20;12.10;;;21.40;99.90;;;;;;5026493;28;20751;-91
2021/09/15 08:25:18;;;;;;;15.10;13.80;;;21.30;99.90;;;;;;5026708;28;20415;-94
2021/09/15 08:27:49;;;;;;;13.10;12.30;;;22.30;99.90;;;;;;5030688;28;20903;-92
2021/09/15 08:30:19;;;;;;;14.47;13.27;;;21.20;99.90;;;;;;5032005;28;20450;-93
2021/09/15 08:33:00;;;;;;;13.00;11.90;;;21.40;99.90;;;;;;5029934;28;20414;-94
2021/09/15 08:35:31;;;;;;;11.80;10.80;;;21.40;99.90;;;;;;5029972;28;20422;-93
2021/09/15 08:37:58;;;;;;;14.80;13.70;;;21.40;99.60;;;;;;5031430;28;20415;-94
2021/09/15 08:40:24;;;;;;;15.03;13.47;;;21.30;99.80;;;;;;5032844;28;20425;-90
2021/09/15 08:43:11;;;;;;;14.73;13.63;;;22.70;99.90;;;;;;5037349;28;20402;-87
2021/09/15 08:45:36;;;;;;;14.90;13.90;;;21.40;99.80;;;;;;5039394;28;20450;-91
2021/09/15 08:48:04;;;;;;;13.30;12.30;;;21.30;99.90;;;;;;5054339;28;20410;-92
2021/09/15 08:50:51;;;;;;;12.03;11.10;;;21.30;99.90;;;;;;5034132;28;20181;-91
2021/09/15 08:53:31;;;;;;;12.77;11.53;;;21.60;99.90;;;;;;5031247;28;20515;-91
2021/09/15 08:55:56;;;;;;;14.27;13.10;;;21.30;99.90;;;;;;5016312;28;20449;-88
2021/09/15 08:58:23;;;;;;;14.90;13.67;;;21.30;99.90;;;;;;5032473;28;20475;-89
2021/09/15 09:01:05;;;;;;;14.77;13.50;;;21.30;99.90;;;;;;5008170;28;20181;-88
2021/09/15 09:03:45;;;;;;;12.83;11.90;;;21.40;99.90;;;;;;5007090;28;20470;-93
2021/09/15 09:06:17;;;;;;;12.47;11.50;;;20.50;99.80;;;;;;5007937;28;20519;-93
2021/09/15 09:08:44;;;;;;;13.17;12.07;;;23.00;99.90;;;;;;4995785;28;20455;-89
2021/09/15 09:11:24;;;;;;;;;;;;;;;;;;;;;
2021/09/15 09:13:58;;;;;;;14.97;13.57;;;21.50;99.70;;;;;;5028392;28;20828;-92
2021/09/15 09:16:39;;;;;;;12.87;11.77;;;22.20;99.90;;;;;;5012628;28;20423;-93
2021/09/15 09:19:18;;;;;;;15.00;13.70;;;21.60;99.90;;;;;;5029618;28;20565;-95
2021/09/15 09:21:52;;;;;;;12.50;11.70;;;22.10;99.90;;;;;;5009355;28;20584;-92
2021/09/15 09:24:21;;;;;;;13.97;12.77;;;24.10;99.90;;;;;;5027006;28;20414;-91
2021/09/15 09:26:57;;;;;;;14.13;13.13;;;22.70;99.90;;;;;;5004363;28;20423;-90
2021/09/15 09:29:27;;;;;;;13.07;12.17;;;21.70;99.70;;;;;;5004527;28;20431;-92
2021/09/15 09:32:01;;;;;;;13.90;12.90;;;23.00;99.90;;;;;;5006100;28;20435;-90
2021/09/15 09:34:31;;;;;;;13.90;12.60;;;21.50;99.90;;;;;;5021613;28;20450;-89
2021/09/15 09:37:00;;;;;;;13.40;12.53;;;21.40;99.90;;;;;;5024233;28;20455;-88
2021/09/15 09:39:55;;;;;;;13.20;12.30;;;21.20;99.90;;;;;;5024339;28;20509;-91
2021/09/15 09:42:30;;;;;;;12.43;11.33;;;22.90;99.90;;;;;;5007798;28;20466;-88
2021/09/15 09:45:05;;;;;;;15.63;14.43;;;22.90;99.90;;;;;;5023715;28;20764;-90
2021/09/15 09:47:33;;;;;;;11.40;10.50;;;21.00;99.90;;;;;;5023746;28;20426;-90
2021/09/15 09:50:04;;;;;;;12.67;11.67;;;21.00;99.90;;;;;;5008725;28;20400;-88
2021/09/15 09:52:49;;;;;;;12.13;11.23;;;21.00;99.90;;;;;;5024743;28;21140;-90
2021/09/15 09:55:15;;;;;;;11.90;11.10;;;20.40;99.90;;;;;;5009787;28;20434;-89
2021/09/15 09:57:55;;;;;;;12.30;11.27;;;21.50;99.90;;;;;;5024965;28;20419;-93
2021/09/15 10:00:22;;;;;;;12.83;11.93;;;21.80;99.90;;;;;;4991216;28;20530;-88
2021/09/15 10:02:49;;;;;;;12.83;11.87;;;21.40;99.90;;;;;;5005289;28;20431;-89
2021/09/15 10:05:16;;;;;;;11.03;10.23;;;22.90;99.90;;;;;;5022388;28;20423;-91
2021/09/15 10:07:47;;;;;;;11.77;10.93;;;21.50;99.90;;;;;;4688934;28;10000340;-93
2021/09/15 10:10:18;;;;;;;11.10;10.10;;;21.60;99.90;;;;;;5042657;28;20219;-91
2021/09/15 10:12:46;;;;;;;9.63;9.03;;;22.00;99.90;;;;;;5045443;28;20407;-90
2021/09/15 10:15:14;;;;;;;8.33;7.83;;;21.90;99.90;;;;;;5041344;28;20883;-88
2021/09/15 10:17:46;;;;;;;8.93;8.33;;;21.60;99.90;;;;;;5042475;28;20415;-86
2021/09/15 10:20:14;;;;;;;9.30;8.70;;;22.10;99.80;;;;;;5042599;28;20519;-87
2021/09/15 10:22:43;;;;;;;8.43;7.93;;;21.20;99.60;;;;;;5041223;28;20414;-90
2021/09/15 10:25:10;;;;;;;6.43;6.13;;;21.80;99.40;;;;;;5044799;28;20411;-89
2021/09/15 10:27:57;;;;;;;6.80;6.50;;;22.20;99.30;;;;;;5022796;28;20425;-90
2021/09/15 10:30:44;;;;;;;6.50;6.20;;;22.40;98.90;;;;;;5042515;28;20410;-87
2021/09/15 10:33:39;;;;;;;6.33;6.13;;;22.30;98.50;;;;;;5024783;28;20422;-87
2021/09/15 10:36:11;;;;;;;7.17;6.80;;;22.40;99.50;;;;;;5023320;28;20906;-90
2021/09/15 10:39:08;;;;;;;7.20;6.80;;;23.10;99.40;;;;;;5045353;28;20776;-90
2021/09/15 10:41:33;;;;;;;6.83;6.53;;;22.20;98.80;;;;;;5022293;28;20427;-93
2021/09/15 10:44:06;;;;;;;7.20;6.90;;;22.20;99.90;;;;;;5042304;28;20936;-90
2021/09/15 10:46:33;;;;;;;6.83;6.53;;;22.40;99.90;;;;;;5041520;28;20242;-90
2021/09/15 10:49:23;;;;;;;6.60;6.40;;;22.20;99.90;;;;;;5022626;28;20952;-88
2021/09/15 10:52:11;;;;;;;5.90;5.70;;;21.70;99.40;;;;;;5021612;28;20521;-89
2021/09/15 10:54:57;;;;;;;6.47;6.03;;;22.60;98.80;;;;;;5034073;28;20426;-91
2021/09/15 10:57:26;;;;;;;6.27;5.97;;;24.00;99.90;;;;;;5021576;28;20423;-90
2021/09/15 11:00:04;;;;;;;6.73;6.53;;;23.80;99.90;;;;;;5006291;28;20479;-91
2021/09/15 11:02:41;;;;;;;7.27;6.97;;;22.50;98.90;;;;;;5023938;28;20458;-89
2021/09/15 11:05:28;;;;;;;6.20;5.93;;;22.60;98.70;;;;;;5027314;28;20948;-90
2021/09/15 11:08:04;;;;;;;5.83;5.53;;;22.40;98.70;;;;;;5024626;28;20422;-91
2021/09/15 11:10:35;;;;;;;5.80;5.60;;;24.00;99.70;;;;;;5021880;28;20415;-90
2021/09/15 11:13:37;;;;;;;6.93;6.63;;;22.40;99.90;;;;;;5019692;28;20430;-91
2021/09/15 11:16:27;;;;;;;6.17;5.77;;;22.60;99.30;;;;;;5041849;28;20486;-89
2021/09/15 11:19:04;;;;;;;6.77;6.47;;;22.90;98.60;;;;;;5022815;28;20469;-90
2021/09/15 11:21:32;;;;;;;6.67;6.27;;;22.70;98.30;;;;;;5038604;28;20414;-89
2021/09/15 11:24:10;;;;;;;7.10;6.70;;;22.50;98.40;;;;;;5024748;28;20519;-90
2021/09/15 11:26:45;;;;;;;7.10;6.50;;;24.00;99.30;;;;;;5030605;28;20465;-90
2021/09/15 11:29:39;;;;;;;8.93;8.20;;;22.70;97.80;;;;;;5046846;28;20414;-90
2021/09/15 11:32:11;;;;;;;11.63;8.67;;;22.80;97.00;;;;;;5043256;28;20411;-94
2021/09/15 11:35:06;;;;;;;8.00;7.40;;;22.70;97.40;;;;;;5045018;28;20553;-91
2021/09/15 11:37:40;;;;;;;8.27;7.53;;;22.70;97.50;;;;;;5044987;28;20824;-88
2021/09/15 11:40:13;;;;;;;8.23;7.80;;;22.80;97.90;;;;;;5042773;28;20497;-90
2021/09/15 11:42:44;;;;;;;8.63;7.90;;;23.00;96.90;;;;;;5025920;28;20480;-91
2021/09/15 11:45:14;;;;;;;8.33;7.87;;;24.60;97.60;;;;;;5046159;28;20422;-91
2021/09/15 11:47:49;;;;;;;8.67;8.17;;;23.20;96.30;;;;;;5043646;28;20759;-92
2021/09/15 11:50:20;;;;;;;7.10;6.90;;;23.40;96.60;;;;;;5043861;28;20438;-91
2021/09/15 11:52:52;;;;;;;7.60;7.20;;;23.60;95.40;;;;;;5127374;23;20456;-89
2021/09/15 11:55:18;;;;;;;7.90;7.50;;;23.70;94.30;;;;;;5017085;28;20404;-84
2021/09/15 11:57:46;;;;;;;7.83;7.43;;;24.20;94.30;;;;;;5019171;28;20407;-90
2021/09/15 12:00:12;;;;;;;8.40;8.10;;;23.50;92.80;;;;;;5018949;28;20502;-88
2021/09/15 12:02:43;;;;;;;9.13;8.40;;;23.60;93.30;;;;;;5018340;28;20408;-88
2021/09/15 12:05:10;;;;;;;10.73;9.60;;;23.40;93.50;;;;;;5017880;28;20423;-86
2021/09/15 12:07:37;;;;;;;9.33;8.90;;;23.20;94.50;;;;;;5021303;28;20474;-89
2021/09/15 12:10:06;;;;;;;11.10;10.20;;;23.20;94.50;;;;;;5026715;28;20423;-88
2021/09/15 12:12:33;;;;;;;10.70;9.87;;;23.40;94.60;;;;;;5028409;28;20438;-88
2021/09/15 12:14:58;;;;;;;9.90;9.40;;;23.40;94.20;;;;;;5031973;28;20423;-88
2021/09/15 12:17:26;;;;;;;11.60;10.90;;;23.60;94.20;;;;;;5022532;28;20427;-86
2021/09/15 12:19:57;;;;;;;10.30;9.50;;;23.70;95.20;;;;;;5016472;28;20280;-89
2021/09/15 12:22:29;;;;;;;11.63;10.93;;;23.70;94.70;;;;;;5016644;28;20786;-88
2021/09/15 12:25:08;;;;;;;15.20;14.23;;;24.50;95.10;;;;;;5018122;28;20415;-89
2021/09/15 12:27:35;;;;;;;14.20;13.03;;;22.70;95.10;;;;;;5015615;28;20510;-90
2021/09/15 12:30:11;;;;;;;16.67;15.17;;;23.90;96.10;;;;;;5023920;28;20445;-93
2021/09/15 12:32:39;;;;;;;13.30;12.40;;;22.80;95.60;;;;;;5023090;28;20439;-89
2021/09/15 12:35:07;;;;;;;14.53;13.53;;;23.60;96.20;;;;;;4316516;28;10000663;-91
2021/09/15 12:37:42;;;;;;;15.30;14.00;;;23.20;95.10;;;;;;5010477;28;20213;-92
2021/09/15 12:40:18;;;;;;;16.80;15.30;;;23.20;95.00;;;;;;5002367;28;20502;-88
2021/09/15 12:42:57;;;;;;;15.43;14.13;;;22.40;94.10;;;;;;4999302;28;20487;-91
2021/09/15 12:45:23;;;;;;;14.30;13.33;;;23.40;94.50;;;;;;4998996;28;20431;-90
2021/09/15 12:47:49;;;;;;;14.63;13.73;;;23.50;94.80;;;;;;4996552;28;20503;-88
2021/09/15 12:50:46;;;;;;;13.17;12.40;;;24.60;94.70;;;;;;4996817;28;20219;-91